createdAt,value
2023-04-18T00:02:24.779Z,8.23
2023-04-18T00:04:55.361Z,8.18
2023-04-18T00:07:25.986Z,8.23
2023-04-18T00:09:56.289Z,8.23
2023-04-18T00:12:26.847Z,8.25
2023-04-18T00:14:58.856Z,8.23
2023-04-18T00:17:33.017Z,8.23
2023-04-18T00:20:07.323Z,8.18
2023-04-18T00:22:42.616Z,8.19
2023-04-18T00:25:13.943Z,8.19
2023-04-18T00:27:44.917Z,8.18
2023-04-18T00:30:16.631Z,8.20
2023-04-18T00:32:49.710Z,8.17
2023-04-18T00:35:22.518Z,8.19
2023-04-18T00:37:53.076Z,8.19
2023-04-18T00:40:23.714Z,8.16
2023-04-18T00:42:54.201Z,8.11
2023-04-18T00:45:24.903Z,8.08
2023-04-18T00:47:59.133Z,8.08
2023-04-18T00:50:30.131Z,8.07
2023-04-18T00:53:01.502Z,8.07
2023-04-18T00:55:33.208Z,8.09
2023-04-18T00:58:04.569Z,8.09
2023-04-18T01:00:35.130Z,8.10
2023-04-18T01:03:08.693Z,8.10
2023-04-18T01:05:39.981Z,8.06
2023-04-18T01:08:10.996Z,8.07
2023-04-18T01:10:41.551Z,8.05
2023-04-18T01:13:16.804Z,8.04
2023-04-18T01:15:49.333Z,8.04
2023-04-18T01:18:22.692Z,8.05
2023-04-18T01:20:57.207Z,8.05
2023-04-18T01:23:27.621Z,8.01
2023-04-18T01:26:01.146Z,8.03
2023-04-18T01:28:31.561Z,8.04
2023-04-18T01:31:01.996Z,8.03
2023-04-18T01:33:32.638Z,7.98
2023-04-18T01:36:03.159Z,8.00
2023-04-18T01:38:34.775Z,8.02
2023-04-18T01:41:07.991Z,7.99
2023-04-18T01:43:38.460Z,7.99
2023-04-18T01:46:09.050Z,7.95
2023-04-18T01:48:39.782Z,7.95
2023-04-18T01:51:10.831Z,7.94
2023-04-18T01:53:41.935Z,7.95
2023-04-18T01:56:15.717Z,7.97
2023-04-18T01:58:46.133Z,7.92
2023-04-18T02:01:17.031Z,7.91
2023-04-18T02:03:47.822Z,7.84
2023-04-18T02:06:18.410Z,7.84
2023-04-18T02:08:50.533Z,7.80
2023-04-18T02:11:23.815Z,7.75
2023-04-18T02:13:54.289Z,7.73
2023-04-18T02:16:25.139Z,7.73
2023-04-18T02:18:55.684Z,7.73
2023-04-18T02:21:26.128Z,7.70
2023-04-18T02:23:56.893Z,7.68
2023-04-18T02:26:30.050Z,7.68
2023-04-18T02:29:01.575Z,7.66
2023-04-18T02:31:33.353Z,7.68
2023-04-18T02:34:03.956Z,7.65
2023-04-18T02:36:34.381Z,7.57
2023-04-18T02:39:09.352Z,7.60
2023-04-18T02:41:42.357Z,7.56
2023-04-18T02:44:13.362Z,7.54
2023-04-18T02:46:43.887Z,7.54
2023-04-18T02:49:17.097Z,7.52
2023-04-18T02:51:48.517Z,7.51
2023-04-18T02:54:20.304Z,7.44
2023-04-18T02:57:08.023Z,7.41
2023-04-18T02:59:51.124Z,7.40
2023-04-18T03:02:44.354Z,7.43
2023-04-18T03:05:39.945Z,7.33
2023-04-18T03:08:11.236Z,7.37
2023-04-18T03:10:42.315Z,7.33
2023-04-18T03:13:15.564Z,7.32
2023-04-18T03:15:46.911Z,7.34
2023-04-18T03:18:17.656Z,7.34
2023-04-18T03:20:48.214Z,7.32
2023-04-18T03:23:20.138Z,7.31
2023-04-18T03:25:50.610Z,7.35
2023-04-18T03:28:23.808Z,7.31
2023-04-18T03:30:54.268Z,7.39
2023-04-18T03:33:25.283Z,7.33
2023-04-18T03:36:03.493Z,7.24
2023-04-18T03:38:34.341Z,7.23
2023-04-18T03:41:04.767Z,7.21
2023-04-18T03:43:40.687Z,7.24
2023-04-18T03:46:11.175Z,7.24
2023-04-18T03:48:42.119Z,7.27
2023-04-18T03:51:15.076Z,7.26
2023-04-18T03:53:45.497Z,7.26
2023-04-18T03:56:16.156Z,7.26
2023-04-18T03:59:00.981Z,7.24
2023-04-18T04:01:31.586Z,7.24
2023-04-18T04:04:03.229Z,7.21
2023-04-18T04:06:34.532Z,7.22
2023-04-18T04:09:05.343Z,7.22
2023-04-18T04:11:36.626Z,7.16
2023-04-18T04:14:10.799Z,7.17
2023-04-18T04:16:46.483Z,7.14
2023-04-18T04:19:19.920Z,7.16
2023-04-18T04:22:08.361Z,7.15
2023-04-18T04:24:40.587Z,7.10
2023-04-18T04:27:12.685Z,7.10
2023-04-18T04:29:46.599Z,7.14
2023-04-18T04:32:17.532Z,7.11
2023-04-18T04:34:48.147Z,7.10
2023-04-18T04:37:19.029Z,7.10
2023-04-18T04:40:10.345Z,7.07
2023-04-18T04:42:57.067Z,7.08
2023-04-18T04:45:39.913Z,7.15
2023-04-18T04:48:10.636Z,7.17
2023-04-18T04:50:43.662Z,7.13
2023-04-18T04:53:15.489Z,7.16
2023-04-18T04:55:46.487Z,7.15
2023-04-18T04:58:17.683Z,7.16
2023-04-18T05:01:12.623Z,7.15
2023-04-18T05:03:44.402Z,7.12
2023-04-18T05:06:20.619Z,7.14
2023-04-18T05:08:51.187Z,7.16
2023-04-18T05:11:21.829Z,7.14
2023-04-18T05:13:52.274Z,7.14
2023-04-18T05:16:25.410Z,7.17
2023-04-18T05:18:55.830Z,7.15
2023-04-18T05:21:27.664Z,7.14
2023-04-18T05:23:58.729Z,7.15
2023-04-18T05:26:29.176Z,7.18
2023-04-18T05:28:59.561Z,7.18
2023-04-18T05:31:32.627Z,7.20
2023-04-18T05:34:03.098Z,7.18
2023-04-18T05:36:33.521Z,7.19
2023-04-18T05:39:04.366Z,7.18
2023-04-18T05:41:34.691Z,7.21
2023-04-18T05:44:05.925Z,7.19
2023-04-18T05:46:39.183Z,7.18
2023-04-18T05:49:09.754Z,7.25
2023-04-18T05:51:40.550Z,7.21
2023-04-18T05:54:10.955Z,7.26
2023-04-18T05:56:43.547Z,7.30
2023-04-18T05:59:14.176Z,7.27
2023-04-18T06:01:47.179Z,7.31
2023-04-18T06:04:18.091Z,7.30
2023-04-18T06:06:48.790Z,7.28
2023-04-18T06:09:19.288Z,7.34
2023-04-18T06:11:49.712Z,7.39
2023-04-18T06:14:20.083Z,7.40
2023-04-18T06:16:53.187Z,7.41
2023-04-18T06:19:23.499Z,7.39
2023-04-18T06:21:55.552Z,7.39
2023-04-18T06:24:26.032Z,7.41
2023-04-18T06:26:57.496Z,7.39
2023-04-18T06:29:30.561Z,7.42
2023-04-18T06:32:03.595Z,7.39
2023-04-18T06:34:33.993Z,7.36
2023-04-18T06:37:05.288Z,7.37
2023-04-18T06:39:35.647Z,7.48
2023-04-18T06:42:06.281Z,7.48
2023-04-18T06:44:37.042Z,7.49
2023-04-18T06:47:10.300Z,7.51
2023-04-18T06:49:40.676Z,7.49
2023-04-18T06:52:11.211Z,7.60
2023-04-18T06:54:41.788Z,7.62
2023-04-18T06:57:12.515Z,7.61
2023-04-18T06:59:43.564Z,7.60
2023-04-18T07:02:16.581Z,7.73
2023-04-18T07:04:47.522Z,7.68
2023-04-18T07:07:17.895Z,7.78
2023-04-18T07:09:48.320Z,7.83
2023-04-18T07:12:18.973Z,7.83
2023-04-18T07:14:49.848Z,7.85
2023-04-18T07:17:22.921Z,7.88
2023-04-18T07:19:53.431Z,7.92
2023-04-18T07:22:23.970Z,7.90
2023-04-18T07:24:54.472Z,7.97
2023-04-18T07:27:24.821Z,8.04
2023-04-18T07:29:55.220Z,8.07
2023-04-18T07:32:28.390Z,8.08
2023-04-18T07:34:59.530Z,8.16
2023-04-18T07:37:29.972Z,8.21
2023-04-18T07:40:00.614Z,8.19
2023-04-18T07:42:31.313Z,8.19
2023-04-18T07:45:01.873Z,8.25
2023-04-18T07:47:35.071Z,8.26
2023-04-18T07:50:06.103Z,8.18
2023-04-18T07:52:38.179Z,8.24
2023-04-18T07:55:11.488Z,8.29
2023-04-18T07:57:41.892Z,8.33
2023-04-18T08:00:15.235Z,8.34
2023-04-18T08:02:48.383Z,8.35
2023-04-18T08:05:19.192Z,8.39
2023-04-18T08:07:49.698Z,8.52
2023-04-18T08:10:23.191Z,8.61
2023-04-18T08:12:54.092Z,8.65
2023-04-18T08:15:24.701Z,8.73
2023-04-18T08:17:57.760Z,8.85
2023-04-18T08:20:28.472Z,8.94
2023-04-18T08:23:07.459Z,8.96
2023-04-18T08:25:39.450Z,8.98
2023-04-18T08:28:10.073Z,9.13
2023-04-18T08:30:40.812Z,9.16
2023-04-18T08:33:13.910Z,9.24
2023-04-18T08:35:44.542Z,9.23
2023-04-18T08:38:14.927Z,9.27
2023-04-18T08:40:46.699Z,9.30
2023-04-18T08:43:18.151Z,9.31
2023-04-18T08:45:48.812Z,9.30
2023-04-18T08:48:23.367Z,9.35
2023-04-18T08:50:59.900Z,9.54
2023-04-18T08:53:32.875Z,9.59
2023-04-18T08:56:03.439Z,9.66
2023-04-18T08:58:34.455Z,9.82
2023-04-18T09:01:04.978Z,9.84
2023-04-18T09:03:45.535Z,9.84
2023-04-18T09:06:20.454Z,9.86
2023-04-18T09:09:00.404Z,9.86
2023-04-18T09:11:34.548Z,9.78
2023-04-18T09:14:05.069Z,9.82
2023-04-18T09:16:50.734Z,9.81
2023-04-18T09:19:23.948Z,9.84
2023-04-18T09:22:02.084Z,9.85
2023-04-18T09:24:34.607Z,9.78
2023-04-18T09:27:05.138Z,9.85
2023-04-18T09:29:50.094Z,9.84
2023-04-18T09:32:27.365Z,9.82
2023-04-18T09:35:04.880Z,9.83
2023-04-18T09:37:35.700Z,9.94
2023-04-18T09:40:20.859Z,9.91
2023-04-18T09:42:51.772Z,9.96
2023-04-18T09:45:22.341Z,10.12
2023-04-18T09:47:53.653Z,10.13
2023-04-18T09:50:26.734Z,10.17
2023-04-18T09:52:58.543Z,10.22
2023-04-18T09:55:29.576Z,10.25
2023-04-18T09:58:02.629Z,10.41
2023-04-18T10:00:35.190Z,10.29
2023-04-18T10:03:11.006Z,10.42
2023-04-18T10:05:45.975Z,10.44
2023-04-18T10:08:17.092Z,10.50
2023-04-18T10:10:47.665Z,10.62
2023-04-18T10:13:18.406Z,10.70
2023-04-18T10:15:52.124Z,10.66
2023-04-18T10:18:27.088Z,10.69
2023-04-18T10:21:08.342Z,10.68
2023-04-18T10:23:41.497Z,10.70
2023-04-18T10:26:12.556Z,10.69
2023-04-18T10:28:59.607Z,10.84
2023-04-18T10:31:31.913Z,10.91
2023-04-18T10:34:05.924Z,10.96
2023-04-18T10:36:39.551Z,11.06
2023-04-18T10:39:26.350Z,11.14
2023-04-18T10:41:56.783Z,11.21
2023-04-18T10:44:27.742Z,11.30
2023-04-18T10:47:34.157Z,11.34
2023-04-18T10:50:07.055Z,11.43
2023-04-18T10:52:40.436Z,11.44
2023-04-18T10:55:20.585Z,11.46
2023-04-18T10:57:56.162Z,11.49
2023-04-18T11:00:27.023Z,11.55
2023-04-18T11:03:00.484Z,11.55
2023-04-18T11:05:32.080Z,11.56
2023-04-18T11:08:05.078Z,11.56
2023-04-18T11:10:35.517Z,11.58
2023-04-18T11:13:09.000Z,11.59
2023-04-18T11:15:40.227Z,11.75
2023-04-18T11:18:12.790Z,11.80
2023-04-18T11:20:50.209Z,11.74
2023-04-18T11:23:25.657Z,11.82
2023-04-18T11:25:58.752Z,11.73
2023-04-18T11:28:29.884Z,11.84
2023-04-18T11:31:03.006Z,11.72
2023-04-18T11:33:33.593Z,11.67
2023-04-18T11:36:04.260Z,11.72
2023-04-18T11:38:37.290Z,11.63
2023-04-18T11:41:07.954Z,11.72
2023-04-18T11:43:38.389Z,11.78
2023-04-18T11:46:09.021Z,11.77
2023-04-18T11:48:39.743Z,11.69
2023-04-18T11:51:31.408Z,11.68
2023-04-18T11:54:04.529Z,11.62
2023-04-18T11:56:36.663Z,11.61
2023-04-18T11:59:12.500Z,11.76
2023-04-18T12:01:43.377Z,11.74
2023-04-18T12:04:14.528Z,11.74
2023-04-18T12:06:52.537Z,11.78
2023-04-18T12:09:27.367Z,11.85
2023-04-18T12:12:02.969Z,11.96
2023-04-18T12:14:33.883Z,12.01
2023-04-18T12:17:07.013Z,12.09
2023-04-18T12:19:37.450Z,12.32
2023-04-18T12:22:09.594Z,12.33
2023-04-18T12:24:43.502Z,12.36
2023-04-18T12:27:14.222Z,12.33
2023-04-18T12:29:44.736Z,12.45
2023-04-18T12:32:15.248Z,12.63
2023-04-18T12:34:45.656Z,12.71
2023-04-18T12:37:16.100Z,12.57
2023-04-18T12:39:49.077Z,12.66
2023-04-18T12:42:19.592Z,12.69
2023-04-18T12:44:50.048Z,12.82
2023-04-18T12:47:20.466Z,12.83
2023-04-18T12:49:50.937Z,12.82
2023-04-18T12:52:21.484Z,12.85
2023-04-18T12:54:56.480Z,12.84
2023-04-18T12:57:28.036Z,12.91
2023-04-18T12:59:59.431Z,12.87
2023-04-18T13:02:30.596Z,12.83
2023-04-18T13:05:01.274Z,12.94
2023-04-18T13:07:31.958Z,13.06
2023-04-18T13:10:04.984Z,13.11
2023-04-18T13:12:35.649Z,13.17
2023-04-18T13:15:06.999Z,13.37
2023-04-18T13:17:39.077Z,13.52
2023-04-18T13:20:13.188Z,13.68
2023-04-18T13:22:45.112Z,13.64
2023-04-18T13:25:18.350Z,13.47
2023-04-18T13:27:50.413Z,13.54
2023-04-18T13:30:21.322Z,13.47
2023-04-18T13:32:51.978Z,13.46
2023-04-18T13:35:22.767Z,13.49
2023-04-18T13:37:53.496Z,13.44
2023-04-18T13:40:26.658Z,13.36
2023-04-18T13:42:57.380Z,13.42
2023-04-18T13:45:27.835Z,13.43
2023-04-18T13:47:58.367Z,13.43
2023-04-18T13:50:28.895Z,13.41
2023-04-18T13:52:59.485Z,13.49
2023-04-18T13:55:32.733Z,13.41
2023-04-18T13:58:03.337Z,13.29
2023-04-18T14:00:34.025Z,13.31
2023-04-18T14:03:05.145Z,13.27
2023-04-18T14:05:36.166Z,13.30
2023-04-18T14:08:06.818Z,13.34
2023-04-18T14:10:40.076Z,13.33
2023-04-18T14:13:10.501Z,13.24
2023-04-18T14:15:40.897Z,13.27
2023-04-18T14:18:11.599Z,13.27
2023-04-18T14:20:42.041Z,13.29
2023-04-18T14:23:12.539Z,13.33
2023-04-18T14:25:46.136Z,13.41
2023-04-18T14:28:17.584Z,13.43
2023-04-18T14:30:48.073Z,13.51
2023-04-18T14:33:18.589Z,13.44
2023-04-18T14:35:48.986Z,13.54
2023-04-18T14:38:19.417Z,13.51
2023-04-18T14:40:52.468Z,13.45
2023-04-18T14:43:22.904Z,13.43
2023-04-18T14:45:53.550Z,13.52
2023-04-18T14:48:24.062Z,13.47
2023-04-18T14:50:59.771Z,13.43
2023-04-18T14:53:30.199Z,13.49
2023-04-18T14:56:03.280Z,13.57
2023-04-18T14:58:33.725Z,13.53
2023-04-18T15:01:04.252Z,13.61
2023-04-18T15:03:35.456Z,13.67
2023-04-18T15:06:06.076Z,13.62
2023-04-18T15:08:36.922Z,13.57
2023-04-18T15:11:11.862Z,13.63
2023-04-18T15:13:42.843Z,13.69
2023-04-18T15:16:13.373Z,13.73
2023-04-18T15:18:45.233Z,13.71
2023-04-18T15:21:15.695Z,13.74
2023-04-18T15:23:46.220Z,13.68
2023-04-18T15:26:19.186Z,13.61
2023-04-18T15:28:49.807Z,13.57
2023-04-18T15:31:20.262Z,13.60
2023-04-18T15:33:50.663Z,13.55
2023-04-18T15:36:21.049Z,13.52
2023-04-18T15:38:51.683Z,13.47
2023-04-18T15:41:24.746Z,13.38
2023-04-18T15:43:56.197Z,13.33
2023-04-18T15:46:26.571Z,13.26
2023-04-18T15:48:57.115Z,13.19
2023-04-18T15:51:30.520Z,13.18
2023-04-18T15:54:01.074Z,13.03
2023-04-18T15:56:36.773Z,13.10
2023-04-18T15:59:11.188Z,13.10
2023-04-18T16:01:43.249Z,13.10
2023-04-18T16:04:15.460Z,13.05
2023-04-18T16:06:46.107Z,13.10
2023-04-18T16:09:16.507Z,13.11
2023-04-18T16:11:49.494Z,13.10
2023-04-18T16:14:19.953Z,13.07
2023-04-18T16:16:50.416Z,13.06
2023-04-18T16:19:21.113Z,13.07
2023-04-18T16:21:51.788Z,13.02
2023-04-18T16:24:22.227Z,13.00
2023-04-18T16:26:55.772Z,12.98
2023-04-18T16:29:26.286Z,12.97
2023-04-18T16:31:56.679Z,13.04
2023-04-18T16:34:27.134Z,12.93
2023-04-18T16:36:57.876Z,12.92
2023-04-18T16:39:28.339Z,12.87
2023-04-18T16:42:01.612Z,12.84
2023-04-18T16:44:33.354Z,12.90
2023-04-18T16:47:05.192Z,12.82
2023-04-18T16:49:35.941Z,12.89
2023-04-18T16:52:06.611Z,12.86
2023-04-18T16:54:37.091Z,12.87
2023-04-18T16:57:10.127Z,12.80
2023-04-18T16:59:41.931Z,12.78
2023-04-18T17:02:12.827Z,12.73
2023-04-18T17:04:43.451Z,12.65
2023-04-18T17:07:13.917Z,12.66
2023-04-18T17:09:44.388Z,12.63
2023-04-18T17:12:17.407Z,12.65
2023-04-18T17:14:47.801Z,12.65
2023-04-18T17:17:18.553Z,12.67
2023-04-18T17:19:49.259Z,12.67
2023-04-18T17:22:19.670Z,12.69
2023-04-18T17:24:50.123Z,12.73
2023-04-18T17:27:23.154Z,12.71
2023-04-18T17:29:53.614Z,12.68
2023-04-18T17:32:24.338Z,12.65
2023-04-18T17:34:56.396Z,12.67
2023-04-18T17:37:27.467Z,12.63
2023-04-18T17:39:58.543Z,12.62
2023-04-18T17:42:31.606Z,12.59
2023-04-18T17:45:04.386Z,12.51
2023-04-18T17:47:34.838Z,12.52
2023-04-18T17:50:05.816Z,12.49
2023-04-18T17:52:36.455Z,12.57
2023-04-18T17:55:07.881Z,12.48
2023-04-18T17:57:41.064Z,12.47
2023-04-18T18:00:14.652Z,12.48
2023-04-18T18:02:45.379Z,12.45
2023-04-18T18:05:16.817Z,12.46
2023-04-18T18:07:50.143Z,12.40
2023-04-18T18:10:23.413Z,12.38
2023-04-18T18:12:56.860Z,12.38
2023-04-18T18:15:28.570Z,12.32
2023-04-18T18:17:59.308Z,12.29
2023-04-18T18:20:30.947Z,12.29
2023-04-18T18:23:02.959Z,12.23
2023-04-18T18:25:36.575Z,12.18
2023-04-18T18:28:10.013Z,12.14
2023-04-18T18:30:40.591Z,12.11
2023-04-18T18:33:11.063Z,12.06
2023-04-18T18:35:41.716Z,12.04
2023-04-18T18:38:12.196Z,12.04
2023-04-18T18:40:42.737Z,11.99
2023-04-18T18:43:15.846Z,11.94
2023-04-18T18:45:46.236Z,11.92
2023-04-18T18:48:16.699Z,11.96
2023-04-18T18:50:48.297Z,11.89
2023-04-18T18:53:19.476Z,11.89
2023-04-18T18:55:49.820Z,11.86
2023-04-18T18:58:22.880Z,11.87
2023-04-18T19:00:54.796Z,11.84
2023-04-18T19:03:26.162Z,11.78
2023-04-18T19:05:56.863Z,11.76
2023-04-18T19:08:27.258Z,11.73
2023-04-18T19:10:57.666Z,11.66
2023-04-18T19:13:30.702Z,11.70
2023-04-18T19:16:01.571Z,11.73
2023-04-18T19:18:32.002Z,11.66
2023-04-18T19:21:02.397Z,11.65
2023-04-18T19:23:32.940Z,11.60
2023-04-18T19:26:03.478Z,11.55
2023-04-18T19:28:36.508Z,11.50
2023-04-18T19:31:07.062Z,11.51
2023-04-18T19:33:37.836Z,11.55
2023-04-18T19:36:08.852Z,11.56
2023-04-18T19:38:39.263Z,11.49
2023-04-18T19:41:09.642Z,11.51
2023-04-18T19:43:42.881Z,11.49
2023-04-18T19:46:13.383Z,11.46
2023-04-18T19:48:43.937Z,11.40
2023-04-18T19:51:14.356Z,11.39
2023-04-18T19:53:44.910Z,11.40
2023-04-18T19:56:15.440Z,11.37
2023-04-18T19:58:49.251Z,11.35
2023-04-18T20:01:22.577Z,11.30
2023-04-18T20:03:54.222Z,11.26
2023-04-18T20:06:25.304Z,11.24
2023-04-18T20:08:56.304Z,11.23
2023-04-18T20:11:28.222Z,11.28
2023-04-18T20:14:01.354Z,11.25
2023-04-18T20:16:32.934Z,11.25
2023-04-18T20:19:04.204Z,11.22
2023-04-18T20:21:35.034Z,11.20
2023-04-18T20:24:05.772Z,11.23
2023-04-18T20:26:36.352Z,11.17
2023-04-18T20:29:09.403Z,11.15
2023-04-18T20:31:42.465Z,11.10
2023-04-18T20:34:12.979Z,11.03
2023-04-18T20:36:44.011Z,11.04
2023-04-18T20:39:15.742Z,11.04
2023-04-18T20:41:47.311Z,11.00
2023-04-18T20:44:22.330Z,11.01
2023-04-18T20:46:53.608Z,10.97
2023-04-18T20:49:23.988Z,10.99
2023-04-18T20:51:54.504Z,11.00
2023-04-18T20:54:25.169Z,10.98
2023-04-18T20:56:55.566Z,10.92
2023-04-18T20:59:28.589Z,10.91
2023-04-18T21:01:59.052Z,10.88
2023-04-18T21:04:30.435Z,10.87
2023-04-18T21:07:00.852Z,10.87
2023-04-18T21:09:36.458Z,10.86
2023-04-18T21:12:07.754Z,10.88
2023-04-18T21:14:40.685Z,10.85
2023-04-18T21:17:17.206Z,10.83
2023-04-18T21:19:48.488Z,10.83
2023-04-18T21:22:20.050Z,10.80
2023-04-18T21:24:50.995Z,10.77
2023-04-18T21:27:21.486Z,10.75
2023-04-18T21:29:54.755Z,10.73
2023-04-18T21:32:25.329Z,10.76
2023-04-18T21:34:56.659Z,10.78
2023-04-18T21:37:27.847Z,10.77
2023-04-18T21:39:58.435Z,10.74
2023-04-18T21:42:28.837Z,10.76
2023-04-18T21:45:01.845Z,10.69
2023-04-18T21:47:32.458Z,10.70
2023-04-18T21:50:03.146Z,10.70
2023-04-18T21:52:33.646Z,10.60
2023-04-18T21:55:05.135Z,10.57
2023-04-18T21:57:35.604Z,10.52
2023-04-18T22:00:13.095Z,10.57
2023-04-18T22:02:43.977Z,10.54
2023-04-18T22:05:14.589Z,10.52
2023-04-18T22:07:56.939Z,10.50
2023-04-18T22:10:28.920Z,10.56
2023-04-18T22:13:00.349Z,10.50
2023-04-18T22:15:33.638Z,10.46
2023-04-18T22:18:05.441Z,10.41
2023-04-18T22:20:36.379Z,10.44
2023-04-18T22:23:07.387Z,10.38
2023-04-18T22:25:38.200Z,10.42
2023-04-18T22:28:08.751Z,10.42
2023-04-18T22:30:41.959Z,10.41
2023-04-18T22:33:12.449Z,10.40
2023-04-18T22:35:42.948Z,10.41
2023-04-18T22:38:13.303Z,10.39
2023-04-18T22:40:43.956Z,10.36
2023-04-18T22:43:14.482Z,10.30
2023-04-18T22:45:48.835Z,10.28
2023-04-18T22:48:19.359Z,10.28
2023-04-18T22:50:50.123Z,10.30
2023-04-18T22:53:20.580Z,10.31
2023-04-18T22:55:51.131Z,10.32
2023-04-18T22:58:21.749Z,10.29
2023-04-18T23:00:54.821Z,10.23
2023-04-18T23:03:25.269Z,10.23
2023-04-18T23:05:56.120Z,10.19
2023-04-18T23:08:26.526Z,10.17
2023-04-18T23:10:57.101Z,10.10
2023-04-18T23:13:27.760Z,10.01
2023-04-18T23:16:00.797Z,10.03
2023-04-18T23:18:32.732Z,10.04
2023-04-18T23:21:03.673Z,10.06
2023-04-18T23:23:34.216Z,10.02
2023-04-18T23:26:04.666Z,9.98
2023-04-18T23:28:35.940Z,9.96
2023-04-18T23:31:09.883Z,9.95
2023-04-18T23:33:40.409Z,9.95
2023-04-18T23:36:11.906Z,9.95
2023-04-18T23:38:43.620Z,10.01
2023-04-18T23:41:14.034Z,10.02
2023-04-18T23:43:44.697Z,10.04
2023-04-18T23:46:18.197Z,9.96
2023-04-18T23:48:48.858Z,9.97
2023-04-18T23:51:19.467Z,9.89
2023-04-18T23:53:50.129Z,9.92
2023-04-18T23:56:20.625Z,9.90
2023-04-18T23:58:51.019Z,9.82
